• Join FlightAware (Why Join?)
  • Login
  • US Flag 
11:30AM EDT


 

Airport Tracker/Info


-or-


 

Live Flight TrackerFlight Track Log ✈ UAL4679 ✈ 03-Aug-2013 ✈ KEWR - KJAX

Flight Track Log - Related Links

Times and Time Zones

All times are in EDT time to prevent confusion due to time zone crossing. See the UAL4679 flight status page for this flight to view local times or setup timezone preferences in your user account.

Time Position Orientation Groundspeed Altitude Reporting Facility
EDT Latitude Longitude Course Direction KTS MPH feet Rate Location/Type
01:00PM 40.6244 -74.1997 180° South 214 246 2,300  Level New York Center
01:01PM 40.5792 -74.2467 218° Southwest 224 258 4,300 1,680 Climbing New York Center
01:02PM 40.5122 -74.2597 188° South 235 270 5,800 780 Climbing New York Center
01:03PM 40.2947 -74.1518 194° South  Level FlightAware Approximate
01:03PM 40.4342 -74.2231 160° South 250 288 6,000  Level New York Center
01:04PM 40.1909 -74.1864 194° South  Level FlightAware Approximate
01:04PM 40.3683 -74.1897 159° South 279 321 6,000  Level New York Center
01:05PM 40.0875 -74.2167 180° South  Level FlightAware Approximate
01:05PM 40.3291 -74.1645 159° South  Level FlightAware Approximate
01:06PM 39.9864 -74.2500 180° South  Level FlightAware Approximate
01:06PM 40.2142 -74.1931 181° South 270 311 9,000  Level New York Center
01:08PM 40.0869 -74.2275 192° South 274 315 11,200 1,080 Climbing Washington Center
01:09PM 39.9997 -74.2589 195° South 301 346 12,100 900 Climbing Washington Center
01:10PM 39.9236 -74.3308 216° Southwest 324 373 13,100 1,080 Climbing Washington Center
01:11PM 39.8492 -74.3997 215° Southwest 335 386 14,400 1,320 Climbing Washington Center
01:12PM 39.7814 -74.4817 223° Southwest 342 394 15,800 1,380 Climbing Washington Center
01:13PM 39.7153 -74.5664 225° Southwest 342 394 17,200 1,200 Climbing Washington Center
01:14PM 39.6494 -74.6508 225° Southwest 336 387 18,200 960 Climbing Washington Center
01:15PM 39.5856 -74.7406 227° Southwest 336 387 19,100 840 Climbing Washington Center
01:16PM 39.5153 -74.8331 225° Southwest 341 392 19,900 780 Climbing Washington Center
01:17PM 39.4428 -74.9278 225° Southwest 355 409 20,700 780 Climbing Washington Center
01:18PM 39.3706 -75.0197 225° Southwest 360 414 21,500 780 Climbing Washington Center
01:19PM 39.2958 -75.1169 225° Southwest 365 420 22,300 780 Climbing Washington Center
01:20PM 39.2044 -75.1872 211° Southwest 381 438 23,100 840 Climbing Washington Center
01:21PM 39.1108 -75.2544 209° Southwest 381 438 24,000 840 Climbing Washington Center
01:22PM 39.0233 -75.3244 212° Southwest 386 444 24,800 780 Climbing Washington Center
01:23PM 38.9214 -75.4022 211° Southwest 386 444 25,600 780 Climbing Washington Center
01:24PM 38.8319 -75.4717 211° Southwest 386 444 26,400 780 Climbing Washington Center
01:25PM 38.7381 -75.5383 209° Southwest 386 444 27,200 780 Climbing Washington Center
01:26PM 38.6486 -75.6156 214° Southwest 386 444 28,000 780 Climbing Washington Center
01:27PM 38.5672 -75.6925 216° Southwest 381 438 28,800 780 Climbing Washington Center
01:28PM 38.4836 -75.7719 217° Southwest 381 438 29,600 780 Climbing Washington Center
01:29PM 38.4022 -75.8381 212° Southwest 381 438 30,400 780 Climbing Washington Center
01:30PM 38.3186 -75.9172 217° Southwest 381 438 31,200 780 Climbing Washington Center
01:31PM 38.2331 -76.0042 219° Southwest 387 445 32,000 780 Climbing Washington Center
01:32PM 38.1533 -76.0908 221° Southwest 393 452 32,800 780 Climbing Washington Center
01:33PM 38.0653 -76.1747 217° Southwest 393 452 33,600 540 Climbing Washington Center
01:34PM 37.9817 -76.2636 220° Southwest 398 458 34,000 180 Climbing Washington Center
01:35PM 37.8914 -76.3547 219° Southwest 404 465 34,000  Level Washington Center
01:36PM 37.8072 -76.4592 224° Southwest 416 479 34,000 180 Level Washington Center
01:37PM 37.7292 -76.5658 227° Southwest 416 479 34,400 600 Climbing Washington Center
01:38PM 37.6489 -76.6778 228° Southwest 421 484 35,300 780 Climbing Washington Center
01:39PM 37.5750 -76.7814 228° Southwest 415 478 36,000 300 Climbing Washington Center
01:40PM 37.4906 -76.8928 226° Southwest 430 495 36,000  Level Washington Center
01:41PM 37.3994 -77.0114 226° Southwest 441 507 36,000  Level Washington Center
01:42PM 37.3314 -77.1172 231° Southwest 441 507 36,000  Level Washington Center
01:43PM 37.2444 -77.2303 226° Southwest 448 516 36,000  Level Washington Center
01:44PM 37.1389 -77.3089 211° Southwest 448 516 36,000  Level Washington Center
01:45PM 37.0272 -77.3844 208° Southwest 454 522 36,000  Level Washington Center
01:46PM 36.9133 -77.4647 209° Southwest 462 532 36,000  Level Washington Center
01:47PM 36.7994 -77.5400 208° Southwest 469 540 36,000  Level Washington Center
01:48PM 36.6878 -77.6147 208° Southwest 469 540 36,000  Level Washington Center
01:49PM 36.5736 -77.6919 209° Southwest 469 540 36,000  Level Washington Center
01:50PM 36.4597 -77.7692 209° Southwest 464 534 36,000  Level Washington Center
01:51PM 36.3519 -77.8458 210° Southwest 464 534 36,000  Level Washington Center
01:52PM 36.2378 -77.9175 207° Southwest 464 534 36,000  Level Washington Center
01:53PM 36.1236 -77.9939 208° Southwest 469 540 36,000  Level Washington Center
01:54PM 36.0136 -78.0675 208° Southwest 462 532 36,000  Level Washington Center
01:55PM 35.8994 -78.1433 208° Southwest 462 532 36,000  Level Washington Center
01:56PM 35.7850 -78.2164 207° Southwest 462 532 36,000  Level Washington Center
01:57PM 35.6731 -78.2894 208° Southwest 462 532 36,000  Level Washington Center
01:58PM 35.5608 -78.3572 206° Southwest 467 537 36,000  Level Washington Center
01:59PM 35.4336 -78.4444 209° Southwest 477 549 36,000  Level Washington Center
02:00PM 35.3297 -78.5097 207° Southwest 477 549 36,000  Level Washington Center
02:01PM 35.2172 -78.5844 208° Southwest 472 543 36,000  Level Washington Center
02:02PM 35.1028 -78.6589 208° Southwest 466 536 36,000  Level Washington Center
02:04PM 34.8656 -78.8092 207° Southwest 456 525 36,000  Level Jacksonville Center
02:05PM 34.7489 -78.8803 207° Southwest 456 525 36,000  Level Jacksonville Center
02:06PM 34.6367 -78.9561 209° Southwest 461 531 36,000  Level Jacksonville Center
02:07PM 34.5200 -79.0269 207° Southwest 461 531 36,000  Level Jacksonville Center
02:08PM 34.4097 -79.1075 211° Southwest 461 531 36,000  Level Jacksonville Center
02:09PM 34.2950 -79.1803 208° Southwest 466 536 36,000  Level Jacksonville Center
02:10PM 34.1847 -79.2603 211° Southwest 466 536 36,000  Level Jacksonville Center
02:11PM 34.0722 -79.3403 211° Southwest 471 542 36,000  Level Jacksonville Center
02:12PM 33.9617 -79.4197 211° Southwest 471 542 36,000  Level Jacksonville Center
02:13PM 33.8678 -79.4886 211° Southwest 464 534 36,000  Level Jacksonville Center
02:14PM 33.7569 -79.5653 210° Southwest 459 528 36,000  Level Jacksonville Center
02:15PM 33.6464 -79.6442 211° Southwest 459 528 36,000 -360 Level Jacksonville Center
02:16PM 33.5336 -79.7256 211° Southwest 459 528 35,300 -900 Descending Jacksonville Center
02:17PM 33.4272 -79.8042 212° Southwest 459 528 34,200 -1,080 Descending Jacksonville Center
02:18PM 33.3164 -79.8800 210° Southwest 464 534 33,200 -1,080 Descending Jacksonville Center
02:19PM 33.2119 -79.9731 217° Southwest 464 534 32,100 -1,080 Descending Jacksonville Center
02:20PM 33.1119 -80.0728 220° Southwest 469 540 31,100 -1,020 Descending Jacksonville Center
02:21PM 33.0011 -80.1581 213° Southwest 476 548 30,100 -600 Descending Jacksonville Center
02:22PM 32.8858 -80.2308 208° Southwest 470 541 30,000 -60 Descending Jacksonville Center
02:23PM 32.7789 -80.3058 211° Southwest 458 527 30,000  Level Jacksonville Center
02:24PM 32.6719 -80.3778 210° Southwest 458 527 30,000  Level Jacksonville Center
02:25PM 32.5583 -80.4525 209° Southwest 458 527 30,000  Level Jacksonville Center
02:26PM 32.4389 -80.5344 210° Southwest 453 521 30,000 -300 Level Jacksonville Center
02:27PM 32.3275 -80.6086 209° Southwest 458 527 29,400 -780 Descending Jacksonville Center
02:28PM 32.2225 -80.6922 214° Southwest 451 519 28,500 -900 Descending Jacksonville Center
02:29PM 32.1319 -80.7656 214° Southwest 450 518 27,600 -960 Descending Jacksonville Center
02:30PM 32.0167 -80.8614 215° Southwest 462 532 26,600 -960 Descending Jacksonville Center
02:31PM 31.9053 -80.9519 215° Southwest 476 548 25,700 -900 Descending Jacksonville Center
02:32PM 31.8106 -81.0322 216° Southwest 476 548 24,800 -1,080 Descending Jacksonville Center
02:33PM 31.6992 -81.1297 217° Southwest 460 529 23,600 -1,440 Descending Jacksonville Center
02:34PM 31.6189 -81.2117 221° Southwest 437 503 22,000 -1,860 Descending Jacksonville Center
02:35PM 31.5261 -81.3133 223° Southwest 418 481 19,900 -2,100 Descending Jacksonville Center
02:36PM 31.4436 -81.3997 222° Southwest 406 467 17,800 -2,400 Descending Jacksonville Center
02:37PM 31.3736 -81.4764 223° Southwest 399 459 15,100 -3,120 Descending Jacksonville Center
02:38PM 31.3156 -81.5283 217° Southwest 374 430 12,900 -1,740 Descending Jacksonville Center
02:40PM 31.1292 -81.6694 213° Southwest 323 372 10,000 -900 Descending Jacksonville Center
02:41PM 31.0628 -81.7139 210° Southwest 274 315 10,000  Level Jacksonville Center
02:42PM 30.9964 -81.7558 208° Southwest 275 316 10,000 -480 Level Jacksonville Center
02:43PM 30.9258 -81.7956 206° Southwest 281 323 9,100 -1,680 Descending Jacksonville Center
02:44PM 30.8742 -81.8592 227° Southwest 266 306 6,600 -2,460 Descending Jacksonville Center
02:45PM 30.8267 -81.9250 230° Southwest 262 302 4,200 -1,860 Descending Jacksonville Center
02:46PM 30.7853 -81.9931 235° Southwest 266 306 2,900 -1,140 Descending Jacksonville Center
02:47PM 30.7419 -82.0492 228° Southwest 247 284 2,000 -480 Descending Jacksonville Center
02:48PM 30.6811 -82.0181 156° South 238 274 2,000  Level Jacksonville Center
02:49PM 30.6139 -81.9778 153° Southeast 231 266 2,000  Level Jacksonville Center
02:50PM 30.5656 -81.9250 137° Southeast 248 285 2,000  Level Jacksonville Center
02:51PM 30.5172 -81.8703 136° Southeast 249 287 2,000  Level Jacksonville Center
02:52PM 30.4625 -81.8419 156° South 212 244 2,000  Level Jacksonville Center
02:53PM 30.4600 -81.7767 93° East 211 243 2,000  Level Jacksonville Center
02:55PM 30.4081 -81.7942 196° South 204 235 2,100  Climbing Jacksonville Center
02:55PM 30.3978 -81.8403 256° West 212 244 2,100  Level Jacksonville Center
02:56PM 30.4169 -81.8833 297° West 204 235 2,100  Level Jacksonville Center
02:57PM 30.4394 -81.8228 67° East 228 262 2,100  Level Jacksonville Center
02:58PM 30.4431 -81.7506 87° East 230 265 2,100 -180 Level Jacksonville Center
03:00PM 30.4153 -81.6736 113° Southeast 199 229 1,700 -540 Descending Jacksonville Center
03:01PM 30.4506 -81.6539 26° Northeast 166 191 1,000 -780 Descending Jacksonville Center